Main page
METAR-TAF:

METAR-TAF

Airports :

Weeze Airport

Weeze, Germany

latitude: 51-36-09N, longitude: 006-08-32E, elevation: 32 m

Current weather observation

The report was made 33 minutes ago, at 22:20 UTC
Wind 6 kt from the Southeast
Temperature 5°C
Humidity 100%
Pressure 1026 hPa
Visibility 10 km or more
no clouds below 1500 m and no cumulonimbus

METAR: EDLV 142220Z 13006KT CAVOK 05/05 Q1026

Time: 23:53 (22:53 UTC)

Forecast

The report was made 5 hours and 53 minutes ago, at 17:00 UTC
Forecast valid from 14 at 18 UTC to 15 at 18 UTC
Wind 5 kt from the Southeast
Visibility 10 km or more
no clouds below 1500 m and no cumulonimbus
Probability 40% :
Temporary
from 15 at 05 UTC to 15 at 08 UTC
Visibility: 4000 m
mist

TAF: EDLV 141700Z 1418/1518 13005KT CAVOK PROB40 TEMPO 1505/1508 4000 BR

Weather observations and forecasts of more than 4000 airports (METAR and TAF reports).

The available stations are represented by yellow and red dots on the map.

Hover mouse over dot to see the name of the station.

Then click to see weather observations and forecasts.

To change the map : click on the green buttons with a black cross to zoom in, on the green button with a dash to zoom out, or on the green arrows for adjacent maps.


METAR-TAF: